sensor_id;sensor_type;location;lat;lon;timestamp;temperature;humidity
11055;DHT22;5580;50.106;8.702;2023-12-04T00:02:00;0.10;99.90
11055;DHT22;5580;50.106;8.702;2023-12-04T00:04:26;0.00;99.90
11055;DHT22;5580;50.106;8.702;2023-12-04T00:06:51;0.00;99.90
11055;DHT22;5580;50.106;8.702;2023-12-04T00:09:17;-0.10;99.90
11055;DHT22;5580;50.106;8.702;2023-12-04T00:11:42;-0.20;99.90
11055;DHT22;5580;50.106;8.702;2023-12-04T00:14:08;-0.20;99.90
11055;DHT22;5580;50.106;8.702;2023-12-04T00:16:34;-0.20;99.90
11055;DHT22;5580;50.106;8.702;2023-12-04T00:19:01;-0.20;99.90
11055;DHT22;5580;50.106;8.702;2023-12-04T00:21:27;-0.20;99.90
11055;DHT22;5580;50.106;8.702;2023-12-04T00:23:52;-0.20;99.90
11055;DHT22;5580;50.106;8.702;2023-12-04T00:26:18;-0.10;99.90
11055;DHT22;5580;50.106;8.702;2023-12-04T00:28:44;-0.10;99.90
11055;DHT22;5580;50.106;8.702;2023-12-04T00:31:09;-0.10;99.90
11055;DHT22;5580;50.106;8.702;2023-12-04T00:33:36;-0.10;99.90
11055;DHT22;5580;50.106;8.702;2023-12-04T00:36:02;-0.10;99.90
11055;DHT22;5580;50.106;8.702;2023-12-04T00:38:27;-0.10;99.90
11055;DHT22;5580;50.106;8.702;2023-12-04T00:40:53;-0.20;99.90
11055;DHT22;5580;50.106;8.702;2023-12-04T00:43:18;-0.20;99.90
11055;DHT22;5580;50.106;8.702;2023-12-04T00:45:44;-0.10;99.90
11055;DHT22;5580;50.106;8.702;2023-12-04T00:48:10;-0.20;99.90
11055;DHT22;5580;50.106;8.702;2023-12-04T00:50:35;-0.20;99.90
11055;DHT22;5580;50.106;8.702;2023-12-04T00:53:01;-0.30;99.90
11055;DHT22;5580;50.106;8.702;2023-12-04T00:55:26;-0.30;99.90
11055;DHT22;5580;50.106;8.702;2023-12-04T00:57:52;-0.30;99.90
11055;DHT22;5580;50.106;8.702;2023-12-04T01:00:18;-0.30;99.90
11055;DHT22;5580;50.106;8.702;2023-12-04T01:02:44;-0.30;99.90
11055;DHT22;5580;50.106;8.702;2023-12-04T01:05:09;-0.40;99.90
11055;DHT22;5580;50.106;8.702;2023-12-04T01:07:35;-0.40;99.90
11055;DHT22;5580;50.106;8.702;2023-12-04T01:10:00;-0.40;99.90
11055;DHT22;5580;50.106;8.702;2023-12-04T01:12:26;-0.40;99.90
11055;DHT22;5580;50.106;8.702;2023-12-04T01:14:52;-0.40;99.90
11055;DHT22;5580;50.106;8.702;2023-12-04T01:17:18;-0.50;99.90
11055;DHT22;5580;50.106;8.702;2023-12-04T01:19:43;-0.50;99.90
11055;DHT22;5580;50.106;8.702;2023-12-04T01:22:09;-0.50;99.90
11055;DHT22;5580;50.106;8.702;2023-12-04T01:24:34;-0.60;99.90
11055;DHT22;5580;50.106;8.702;2023-12-04T01:27:00;-0.50;99.90
11055;DHT22;5580;50.106;8.702;2023-12-04T01:29:25;-0.60;99.90
11055;DHT22;5580;50.106;8.702;2023-12-04T01:31:51;-0.70;99.90
11055;DHT22;5580;50.106;8.702;2023-12-04T01:34:16;-0.80;99.90
11055;DHT22;5580;50.106;8.702;2023-12-04T01:36:42;-0.80;99.90
11055;DHT22;5580;50.106;8.702;2023-12-04T01:39:08;-0.90;99.90
11055;DHT22;5580;50.106;8.702;2023-12-04T01:41:33;-0.90;99.90
11055;DHT22;5580;50.106;8.702;2023-12-04T01:43:59;-0.90;99.90
11055;DHT22;5580;50.106;8.702;2023-12-04T01:46:25;-0.90;99.90
11055;DHT22;5580;50.106;8.702;2023-12-04T01:48:51;-0.90;99.90
11055;DHT22;5580;50.106;8.702;2023-12-04T01:51:19;-0.90;99.90
11055;DHT22;5580;50.106;8.702;2023-12-04T01:53:45;-0.80;99.90
11055;DHT22;5580;50.106;8.702;2023-12-04T01:56:12;-0.70;99.90
11055;DHT22;5580;50.106;8.702;2023-12-04T01:58:39;-0.70;99.90
11055;DHT22;5580;50.106;8.702;2023-12-04T02:01:05;-0.80;99.90
11055;DHT22;5580;50.106;8.702;2023-12-04T02:03:31;-0.90;99.90
11055;DHT22;5580;50.106;8.702;2023-12-04T02:05:59;-0.90;99.90
11055;DHT22;5580;50.106;8.702;2023-12-04T02:08:25;-0.90;99.90
11055;DHT22;5580;50.106;8.702;2023-12-04T02:10:51;-1.00;99.90
11055;DHT22;5580;50.106;8.702;2023-12-04T02:13:17;-1.00;99.90
11055;DHT22;5580;50.106;8.702;2023-12-04T02:15:43;-1.00;99.90
11055;DHT22;5580;50.106;8.702;2023-12-04T02:18:09;-1.00;99.90
11055;DHT22;5580;50.106;8.702;2023-12-04T02:20:35;-0.90;99.90
11055;DHT22;5580;50.106;8.702;2023-12-04T02:23:02;-0.90;99.90
11055;DHT22;5580;50.106;8.702;2023-12-04T02:25:29;-0.90;99.90
11055;DHT22;5580;50.106;8.702;2023-12-04T02:27:56;-0.90;99.90
11055;DHT22;5580;50.106;8.702;2023-12-04T02:30:24;-0.90;99.90
11055;DHT22;5580;50.106;8.702;2023-12-04T02:32:50;-0.90;99.90
11055;DHT22;5580;50.106;8.702;2023-12-04T02:35:21;-1.00;99.90
11055;DHT22;5580;50.106;8.702;2023-12-04T02:37:47;-0.90;99.90
11055;DHT22;5580;50.106;8.702;2023-12-04T02:40:14;-1.00;99.90
11055;DHT22;5580;50.106;8.702;2023-12-04T02:42:40;-1.00;99.90
11055;DHT22;5580;50.106;8.702;2023-12-04T02:45:06;-1.10;99.90
11055;DHT22;5580;50.106;8.702;2023-12-04T02:47:32;-1.20;99.90
11055;DHT22;5580;50.106;8.702;2023-12-04T02:49:58;-1.30;99.90
11055;DHT22;5580;50.106;8.702;2023-12-04T02:52:23;-1.30;99.90
11055;DHT22;5580;50.106;8.702;2023-12-04T02:54:49;-1.40;99.90
11055;DHT22;5580;50.106;8.702;2023-12-04T02:57:15;-1.40;99.90
11055;DHT22;5580;50.106;8.702;2023-12-04T02:59:40;-1.40;99.90
11055;DHT22;5580;50.106;8.702;2023-12-04T03:02:06;-1.50;99.90
11055;DHT22;5580;50.106;8.702;2023-12-04T03:04:32;-1.50;99.90
11055;DHT22;5580;50.106;8.702;2023-12-04T03:06:57;-1.40;99.90
11055;DHT22;5580;50.106;8.702;2023-12-04T03:09:23;-1.40;99.90
11055;DHT22;5580;50.106;8.702;2023-12-04T03:11:49;-1.40;99.90
11055;DHT22;5580;50.106;8.702;2023-12-04T03:14:14;-1.40;99.90
11055;DHT22;5580;50.106;8.702;2023-12-04T03:16:40;-1.50;99.90
11055;DHT22;5580;50.106;8.702;2023-12-04T03:19:05;-1.50;99.90
11055;DHT22;5580;50.106;8.702;2023-12-04T03:21:31;-1.50;99.90
11055;DHT22;5580;50.106;8.702;2023-12-04T03:23:57;-1.50;99.90
11055;DHT22;5580;50.106;8.702;2023-12-04T03:26:22;-1.50;99.90
11055;DHT22;5580;50.106;8.702;2023-12-04T03:28:48;-1.50;99.90
11055;DHT22;5580;50.106;8.702;2023-12-04T03:31:14;-1.50;99.90
11055;DHT22;5580;50.106;8.702;2023-12-04T03:33:39;-1.50;99.90
11055;DHT22;5580;50.106;8.702;2023-12-04T03:36:05;-1.50;99.90
11055;DHT22;5580;50.106;8.702;2023-12-04T03:38:31;-1.50;99.90
11055;DHT22;5580;50.106;8.702;2023-12-04T03:40:57;-1.60;99.90
11055;DHT22;5580;50.106;8.702;2023-12-04T03:43:22;-1.60;99.90
11055;DHT22;5580;50.106;8.702;2023-12-04T03:45:48;-1.70;99.90
11055;DHT22;5580;50.106;8.702;2023-12-04T03:48:13;-1.70;99.90
11055;DHT22;5580;50.106;8.702;2023-12-04T03:50:39;-1.70;99.90
11055;DHT22;5580;50.106;8.702;2023-12-04T03:53:04;-1.60;99.90
11055;DHT22;5580;50.106;8.702;2023-12-04T03:55:30;-1.50;99.90
11055;DHT22;5580;50.106;8.702;2023-12-04T03:57:56;-1.60;99.90
11055;DHT22;5580;50.106;8.702;2023-12-04T04:00:23;-1.50;99.90
11055;DHT22;5580;50.106;8.702;2023-12-04T04:02:49;-1.60;99.90
11055;DHT22;5580;50.106;8.702;2023-12-04T04:05:15;-1.60;99.90
11055;DHT22;5580;50.106;8.702;2023-12-04T04:07:40;-1.60;99.90
11055;DHT22;5580;50.106;8.702;2023-12-04T04:10:07;-1.60;99.90
11055;DHT22;5580;50.106;8.702;2023-12-04T04:12:33;-1.60;99.90
11055;DHT22;5580;50.106;8.702;2023-12-04T04:14:59;-1.60;99.90
11055;DHT22;5580;50.106;8.702;2023-12-04T04:17:24;-1.60;99.90
11055;DHT22;5580;50.106;8.702;2023-12-04T04:19:54;-1.60;99.90
11055;DHT22;5580;50.106;8.702;2023-12-04T04:22:20;-1.60;99.90
11055;DHT22;5580;50.106;8.702;2023-12-04T04:24:47;-1.60;99.90
11055;DHT22;5580;50.106;8.702;2023-12-04T04:27:13;-1.50;99.90
11055;DHT22;5580;50.106;8.702;2023-12-04T04:29:39;-1.60;99.90
11055;DHT22;5580;50.106;8.702;2023-12-04T04:32:04;-1.50;99.90
11055;DHT22;5580;50.106;8.702;2023-12-04T04:34:30;-1.50;99.90
11055;DHT22;5580;50.106;8.702;2023-12-04T04:36:56;-1.50;99.90
11055;DHT22;5580;50.106;8.702;2023-12-04T04:39:21;-1.50;99.90
11055;DHT22;5580;50.106;8.702;2023-12-04T04:41:47;-1.50;99.90
11055;DHT22;5580;50.106;8.702;2023-12-04T04:44:12;-1.50;99.90
11055;DHT22;5580;50.106;8.702;2023-12-04T04:46:38;-1.50;99.90
11055;DHT22;5580;50.106;8.702;2023-12-04T04:49:03;-1.50;99.90
11055;DHT22;5580;50.106;8.702;2023-12-04T04:51:32;-1.50;99.90
11055;DHT22;5580;50.106;8.702;2023-12-04T04:53:59;-1.50;99.90
11055;DHT22;5580;50.106;8.702;2023-12-04T04:56:25;-1.50;99.90
11055;DHT22;5580;50.106;8.702;2023-12-04T04:58:50;-1.50;99.90
11055;DHT22;5580;50.106;8.702;2023-12-04T05:01:16;-1.60;99.90
11055;DHT22;5580;50.106;8.702;2023-12-04T05:03:41;-1.70;99.90
11055;DHT22;5580;50.106;8.702;2023-12-04T05:06:07;-1.70;99.90
11055;DHT22;5580;50.106;8.702;2023-12-04T05:08:33;-1.70;99.90
11055;DHT22;5580;50.106;8.702;2023-12-04T05:10:58;-1.70;99.90
11055;DHT22;5580;50.106;8.702;2023-12-04T05:13:24;-1.70;99.90
11055;DHT22;5580;50.106;8.702;2023-12-04T05:15:49;-1.60;99.90
11055;DHT22;5580;50.106;8.702;2023-12-04T05:18:15;-1.60;99.90
11055;DHT22;5580;50.106;8.702;2023-12-04T05:20:40;-1.60;99.90
11055;DHT22;5580;50.106;8.702;2023-12-04T05:23:06;-1.60;99.90
11055;DHT22;5580;50.106;8.702;2023-12-04T05:25:32;-1.60;99.90
11055;DHT22;5580;50.106;8.702;2023-12-04T05:27:57;-1.70;99.90
11055;DHT22;5580;50.106;8.702;2023-12-04T05:30:23;-1.70;99.90
11055;DHT22;5580;50.106;8.702;2023-12-04T05:32:48;-1.70;99.90
11055;DHT22;5580;50.106;8.702;2023-12-04T05:35:15;-1.60;99.90
11055;DHT22;5580;50.106;8.702;2023-12-04T05:37:41;-1.60;99.90
11055;DHT22;5580;50.106;8.702;2023-12-04T05:40:07;-1.60;99.90
11055;DHT22;5580;50.106;8.702;2023-12-04T05:42:33;-1.50;99.90
11055;DHT22;5580;50.106;8.702;2023-12-04T05:44:58;-1.60;99.90
11055;DHT22;5580;50.106;8.702;2023-12-04T05:47:26;-1.70;99.90
11055;DHT22;5580;50.106;8.702;2023-12-04T05:49:51;-1.70;99.90
11055;DHT22;5580;50.106;8.702;2023-12-04T05:52:17;-1.70;99.90
11055;DHT22;5580;50.106;8.702;2023-12-04T05:54:43;-1.70;99.90
11055;DHT22;5580;50.106;8.702;2023-12-04T05:57:08;-1.70;99.90
11055;DHT22;5580;50.106;8.702;2023-12-04T05:59:34;-1.70;99.90
11055;DHT22;5580;50.106;8.702;2023-12-04T06:02:00;-1.70;99.90
11055;DHT22;5580;50.106;8.702;2023-12-04T06:04:26;-1.70;99.90
11055;DHT22;5580;50.106;8.702;2023-12-04T06:06:52;-1.70;99.90
11055;DHT22;5580;50.106;8.702;2023-12-04T06:09:17;-1.70;99.90
11055;DHT22;5580;50.106;8.702;2023-12-04T06:11:43;-1.70;99.90
11055;DHT22;5580;50.106;8.702;2023-12-04T06:14:08;-1.70;99.90
11055;DHT22;5580;50.106;8.702;2023-12-04T06:16:34;-1.70;99.90
11055;DHT22;5580;50.106;8.702;2023-12-04T06:18:59;-1.70;99.90
11055;DHT22;5580;50.106;8.702;2023-12-04T06:21:25;-1.70;99.90
11055;DHT22;5580;50.106;8.702;2023-12-04T06:23:51;-1.60;99.90
11055;DHT22;5580;50.106;8.702;2023-12-04T06:26:16;-1.60;99.90
11055;DHT22;5580;50.106;8.702;2023-12-04T06:28:43;-1.70;99.90
11055;DHT22;5580;50.106;8.702;2023-12-04T06:31:09;-1.60;99.90
11055;DHT22;5580;50.106;8.702;2023-12-04T06:33:35;-1.60;99.90
11055;DHT22;5580;50.106;8.702;2023-12-04T06:36:01;-1.60;99.90
11055;DHT22;5580;50.106;8.702;2023-12-04T06:38:31;-1.70;99.90
11055;DHT22;5580;50.106;8.702;2023-12-04T06:40:57;-1.70;99.90
11055;DHT22;5580;50.106;8.702;2023-12-04T06:43:23;-1.70;99.90
11055;DHT22;5580;50.106;8.702;2023-12-04T06:45:49;-1.70;99.90
11055;DHT22;5580;50.106;8.702;2023-12-04T06:48:15;-1.70;99.90
11055;DHT22;5580;50.106;8.702;2023-12-04T06:50:41;-1.70;99.90
11055;DHT22;5580;50.106;8.702;2023-12-04T06:53:07;-1.70;99.90
11055;DHT22;5580;50.106;8.702;2023-12-04T06:55:32;-1.70;99.90
11055;DHT22;5580;50.106;8.702;2023-12-04T06:57:58;-1.60;99.90
11055;DHT22;5580;50.106;8.702;2023-12-04T07:00:23;-1.60;99.90
11055;DHT22;5580;50.106;8.702;2023-12-04T07:02:49;-1.60;99.90
11055;DHT22;5580;50.106;8.702;2023-12-04T07:05:15;-1.70;99.90
11055;DHT22;5580;50.106;8.702;2023-12-04T07:07:41;-1.70;99.90
11055;DHT22;5580;50.106;8.702;2023-12-04T07:10:07;-1.60;99.90
11055;DHT22;5580;50.106;8.702;2023-12-04T07:12:33;-1.70;99.90
11055;DHT22;5580;50.106;8.702;2023-12-04T07:14:59;-1.70;99.90
11055;DHT22;5580;50.106;8.702;2023-12-04T07:17:25;-1.70;99.90
11055;DHT22;5580;50.106;8.702;2023-12-04T07:19:50;-1.70;99.90
11055;DHT22;5580;50.106;8.702;2023-12-04T07:22:16;-1.70;99.90
11055;DHT22;5580;50.106;8.702;2023-12-04T07:24:41;-1.70;99.90
11055;DHT22;5580;50.106;8.702;2023-12-04T07:27:07;-1.70;99.90
11055;DHT22;5580;50.106;8.702;2023-12-04T07:29:34;-1.80;99.90
11055;DHT22;5580;50.106;8.702;2023-12-04T07:32:00;-1.80;99.90
11055;DHT22;5580;50.106;8.702;2023-12-04T07:34:25;-1.80;99.90
11055;DHT22;5580;50.106;8.702;2023-12-04T07:36:51;-1.80;99.90
11055;DHT22;5580;50.106;8.702;2023-12-04T07:39:17;-1.80;99.90
11055;DHT22;5580;50.106;8.702;2023-12-04T07:41:43;-1.70;99.90
11055;DHT22;5580;50.106;8.702;2023-12-04T07:44:08;-1.70;99.90
11055;DHT22;5580;50.106;8.702;2023-12-04T07:46:34;-1.70;99.90
11055;DHT22;5580;50.106;8.702;2023-12-04T07:48:59;-1.60;99.90
11055;DHT22;5580;50.106;8.702;2023-12-04T07:51:25;-1.50;99.90
11055;DHT22;5580;50.106;8.702;2023-12-04T07:53:51;-1.50;99.90
11055;DHT22;5580;50.106;8.702;2023-12-04T07:56:16;-1.40;99.90
11055;DHT22;5580;50.106;8.702;2023-12-04T07:58:42;-1.40;99.90
11055;DHT22;5580;50.106;8.702;2023-12-04T08:01:08;-1.40;99.90
11055;DHT22;5580;50.106;8.702;2023-12-04T08:03:33;-1.40;99.90
11055;DHT22;5580;50.106;8.702;2023-12-04T08:05:59;-1.40;99.90
11055;DHT22;5580;50.106;8.702;2023-12-04T08:08:25;-1.30;99.90
11055;DHT22;5580;50.106;8.702;2023-12-04T08:10:50;-1.30;99.90
11055;DHT22;5580;50.106;8.702;2023-12-04T08:13:16;-1.30;99.90
11055;DHT22;5580;50.106;8.702;2023-12-04T08:15:43;-1.30;99.90
11055;DHT22;5580;50.106;8.702;2023-12-04T08:18:08;-1.30;99.90
11055;DHT22;5580;50.106;8.702;2023-12-04T08:20:34;-1.20;99.90
11055;DHT22;5580;50.106;8.702;2023-12-04T08:23:00;-1.20;99.90
11055;DHT22;5580;50.106;8.702;2023-12-04T08:25:25;-1.20;99.90
11055;DHT22;5580;50.106;8.702;2023-12-04T08:27:51;-1.20;99.90
11055;DHT22;5580;50.106;8.702;2023-12-04T08:30:16;-1.20;99.90
11055;DHT22;5580;50.106;8.702;2023-12-04T08:32:43;-1.20;99.90
11055;DHT22;5580;50.106;8.702;2023-12-04T08:35:08;-1.20;99.90
11055;DHT22;5580;50.106;8.702;2023-12-04T08:37:34;-1.20;99.90
11055;DHT22;5580;50.106;8.702;2023-12-04T08:39:59;-1.20;99.90
11055;DHT22;5580;50.106;8.702;2023-12-04T08:42:25;-1.10;99.90
11055;DHT22;5580;50.106;8.702;2023-12-04T08:44:51;-1.10;99.90
11055;DHT22;5580;50.106;8.702;2023-12-04T08:47:17;-1.10;99.90
11055;DHT22;5580;50.106;8.702;2023-12-04T08:49:43;-1.10;99.90
11055;DHT22;5580;50.106;8.702;2023-12-04T08:52:09;-1.10;99.90
11055;DHT22;5580;50.106;8.702;2023-12-04T08:54:38;-1.10;99.90
11055;DHT22;5580;50.106;8.702;2023-12-04T08:57:04;-1.00;99.90
11055;DHT22;5580;50.106;8.702;2023-12-04T08:59:29;-1.00;99.90
11055;DHT22;5580;50.106;8.702;2023-12-04T09:01:55;-1.00;99.90
11055;DHT22;5580;50.106;8.702;2023-12-04T09:04:21;-1.00;99.90
11055;DHT22;5580;50.106;8.702;2023-12-04T09:06:47;-0.90;99.90
11055;DHT22;5580;50.106;8.702;2023-12-04T09:09:12;-0.90;99.90
11055;DHT22;5580;50.106;8.702;2023-12-04T09:11:42;-0.80;99.90
11055;DHT22;5580;50.106;8.702;2023-12-04T09:14:07;-0.80;99.90
11055;DHT22;5580;50.106;8.702;2023-12-04T09:16:33;-0.90;99.90
11055;DHT22;5580;50.106;8.702;2023-12-04T09:18:58;-0.90;99.90
11055;DHT22;5580;50.106;8.702;2023-12-04T09:21:24;-0.90;99.90
11055;DHT22;5580;50.106;8.702;2023-12-04T09:23:49;-0.90;99.90
11055;DHT22;5580;50.106;8.702;2023-12-04T09:26:16;-0.90;99.90
11055;DHT22;5580;50.106;8.702;2023-12-04T09:28:42;-0.80;99.90
11055;DHT22;5580;50.106;8.702;2023-12-04T09:31:11;-0.80;99.90
11055;DHT22;5580;50.106;8.702;2023-12-04T09:33:36;-0.80;99.90
11055;DHT22;5580;50.106;8.702;2023-12-04T09:36:03;-0.80;99.90
11055;DHT22;5580;50.106;8.702;2023-12-04T09:38:29;-0.70;99.90
11055;DHT22;5580;50.106;8.702;2023-12-04T09:40:59;-0.70;99.90
11055;DHT22;5580;50.106;8.702;2023-12-04T09:43:29;-0.70;99.90
11055;DHT22;5580;50.106;8.702;2023-12-04T09:45:56;-0.70;99.90
11055;DHT22;5580;50.106;8.702;2023-12-04T09:48:24;-0.70;99.90
11055;DHT22;5580;50.106;8.702;2023-12-04T09:50:51;-0.70;99.90
11055;DHT22;5580;50.106;8.702;2023-12-04T09:53:17;-0.60;99.90
11055;DHT22;5580;50.106;8.702;2023-12-04T09:55:43;-0.50;99.90
11055;DHT22;5580;50.106;8.702;2023-12-04T09:58:11;-0.50;99.90
11055;DHT22;5580;50.106;8.702;2023-12-04T10:00:40;-0.50;99.90
11055;DHT22;5580;50.106;8.702;2023-12-04T10:03:06;-0.50;99.90
11055;DHT22;5580;50.106;8.702;2023-12-04T10:05:32;-0.50;99.90
11055;DHT22;5580;50.106;8.702;2023-12-04T10:07:58;-0.50;99.90
11055;DHT22;5580;50.106;8.702;2023-12-04T10:10:23;-0.50;99.90
11055;DHT22;5580;50.106;8.702;2023-12-04T10:12:49;-0.50;99.90
11055;DHT22;5580;50.106;8.702;2023-12-04T10:15:14;-0.40;99.90
11055;DHT22;5580;50.106;8.702;2023-12-04T10:17:42;-0.30;99.90
11055;DHT22;5580;50.106;8.702;2023-12-04T10:20:14;-0.30;99.90
11055;DHT22;5580;50.106;8.702;2023-12-04T10:23:00;-0.20;99.90
11055;DHT22;5580;50.106;8.702;2023-12-04T10:25:28;-0.20;99.90
11055;DHT22;5580;50.106;8.702;2023-12-04T10:28:12;-0.20;99.90
11055;DHT22;5580;50.106;8.702;2023-12-04T10:30:39;-0.20;99.90
11055;DHT22;5580;50.106;8.702;2023-12-04T10:33:06;-0.20;99.90
11055;DHT22;5580;50.106;8.702;2023-12-04T10:35:33;-0.20;99.90
11055;DHT22;5580;50.106;8.702;2023-12-04T10:38:03;-0.10;99.90
11055;DHT22;5580;50.106;8.702;2023-12-04T10:40:30;-0.10;99.90
11055;DHT22;5580;50.106;8.702;2023-12-04T10:45:35;0.00;99.90
11055;DHT22;5580;50.106;8.702;2023-12-04T10:48:01;0.00;99.90
11055;DHT22;5580;50.106;8.702;2023-12-04T10:50:31;0.00;99.90
11055;DHT22;5580;50.106;8.702;2023-12-04T10:52:59;0.00;99.90
11055;DHT22;5580;50.106;8.702;2023-12-04T10:55:25;0.10;99.90
11055;DHT22;5580;50.106;8.702;2023-12-04T10:57:51;0.10;99.90
11055;DHT22;5580;50.106;8.702;2023-12-04T11:00:20;0.20;99.90
11055;DHT22;5580;50.106;8.702;2023-12-04T11:02:48;0.20;99.90
11055;DHT22;5580;50.106;8.702;2023-12-04T11:05:16;0.30;99.90
11055;DHT22;5580;50.106;8.702;2023-12-04T11:07:55;0.30;99.90
11055;DHT22;5580;50.106;8.702;2023-12-04T11:10:22;0.30;99.90
11055;DHT22;5580;50.106;8.702;2023-12-04T11:12:56;0.30;99.90
11055;DHT22;5580;50.106;8.702;2023-12-04T11:15:23;0.40;99.90
11055;DHT22;5580;50.106;8.702;2023-12-04T11:17:55;0.50;99.90
11055;DHT22;5580;50.106;8.702;2023-12-04T11:20:24;0.50;99.90
11055;DHT22;5580;50.106;8.702;2023-12-04T11:22:54;0.50;99.90
11055;DHT22;5580;50.106;8.702;2023-12-04T11:25:20;0.60;99.90
11055;DHT22;5580;50.106;8.702;2023-12-04T11:27:49;0.70;99.90
11055;DHT22;5580;50.106;8.702;2023-12-04T11:30:15;0.80;99.90
11055;DHT22;5580;50.106;8.702;2023-12-04T11:32:45;0.80;99.90
11055;DHT22;5580;50.106;8.702;2023-12-04T11:35:18;0.80;99.90
11055;DHT22;5580;50.106;8.702;2023-12-04T11:37:44;0.90;99.90
11055;DHT22;5580;50.106;8.702;2023-12-04T11:40:15;0.80;99.90
11055;DHT22;5580;50.106;8.702;2023-12-04T11:42:41;0.80;99.90
11055;DHT22;5580;50.106;8.702;2023-12-04T11:45:07;0.80;99.90
11055;DHT22;5580;50.106;8.702;2023-12-04T11:47:56;0.80;99.90
11055;DHT22;5580;50.106;8.702;2023-12-04T11:50:24;0.80;99.90
11055;DHT22;5580;50.106;8.702;2023-12-04T11:52:49;0.80;99.90
11055;DHT22;5580;50.106;8.702;2023-12-04T11:55:16;0.70;99.90
11055;DHT22;5580;50.106;8.702;2023-12-04T11:57:43;0.70;99.90
11055;DHT22;5580;50.106;8.702;2023-12-04T12:00:12;0.70;99.90
11055;DHT22;5580;50.106;8.702;2023-12-04T12:02:40;0.70;99.90
11055;DHT22;5580;50.106;8.702;2023-12-04T12:05:06;0.70;99.90
11055;DHT22;5580;50.106;8.702;2023-12-04T12:07:35;0.60;99.90
11055;DHT22;5580;50.106;8.702;2023-12-04T12:10:01;0.50;99.90
11055;DHT22;5580;50.106;8.702;2023-12-04T12:12:28;0.40;99.90
11055;DHT22;5580;50.106;8.702;2023-12-04T12:14:53;0.40;99.90
11055;DHT22;5580;50.106;8.702;2023-12-04T12:17:19;0.30;99.90
11055;DHT22;5580;50.106;8.702;2023-12-04T12:19:45;0.30;99.90
11055;DHT22;5580;50.106;8.702;2023-12-04T12:22:11;0.20;99.90
11055;DHT22;5580;50.106;8.702;2023-12-04T12:24:37;0.10;99.90
11055;DHT22;5580;50.106;8.702;2023-12-04T12:27:03;-0.10;99.90
11055;DHT22;5580;50.106;8.702;2023-12-04T12:29:29;-0.20;99.90
11055;DHT22;5580;50.106;8.702;2023-12-04T12:31:55;-0.20;99.90
11055;DHT22;5580;50.106;8.702;2023-12-04T12:34:20;-0.20;99.90
11055;DHT22;5580;50.106;8.702;2023-12-04T12:36:46;-0.20;99.90
11055;DHT22;5580;50.106;8.702;2023-12-04T12:39:12;-0.10;99.90
11055;DHT22;5580;50.106;8.702;2023-12-04T12:41:38;0.00;99.90
11055;DHT22;5580;50.106;8.702;2023-12-04T12:44:04;-0.10;99.90
11055;DHT22;5580;50.106;8.702;2023-12-04T12:46:31;-0.10;99.90
11055;DHT22;5580;50.106;8.702;2023-12-04T12:48:56;-0.10;99.90
11055;DHT22;5580;50.106;8.702;2023-12-04T12:51:23;-0.20;99.90
11055;DHT22;5580;50.106;8.702;2023-12-04T12:53:49;-0.20;99.90
11055;DHT22;5580;50.106;8.702;2023-12-04T12:56:15;-0.20;99.90
11055;DHT22;5580;50.106;8.702;2023-12-04T12:58:41;-0.30;99.90
11055;DHT22;5580;50.106;8.702;2023-12-04T13:01:10;-0.30;99.90
11055;DHT22;5580;50.106;8.702;2023-12-04T13:03:36;-0.50;99.90
11055;DHT22;5580;50.106;8.702;2023-12-04T13:06:03;-0.50;99.90
11055;DHT22;5580;50.106;8.702;2023-12-04T13:08:29;-0.60;99.90
11055;DHT22;5580;50.106;8.702;2023-12-04T13:10:55;-0.60;99.90
11055;DHT22;5580;50.106;8.702;2023-12-04T13:13:20;-0.50;99.90
11055;DHT22;5580;50.106;8.702;2023-12-04T13:15:46;-0.50;99.90
11055;DHT22;5580;50.106;8.702;2023-12-04T13:18:12;-0.50;99.90
11055;DHT22;5580;50.106;8.702;2023-12-04T13:20:37;-0.40;99.90
11055;DHT22;5580;50.106;8.702;2023-12-04T13:23:03;-0.40;99.90
11055;DHT22;5580;50.106;8.702;2023-12-04T13:25:29;-0.50;99.90
11055;DHT22;5580;50.106;8.702;2023-12-04T13:27:54;-0.60;99.90
11055;DHT22;5580;50.106;8.702;2023-12-04T13:30:20;-0.60;99.90
11055;DHT22;5580;50.106;8.702;2023-12-04T13:32:46;-0.60;99.90
11055;DHT22;5580;50.106;8.702;2023-12-04T13:35:11;-0.70;99.90
11055;DHT22;5580;50.106;8.702;2023-12-04T13:37:37;-0.70;99.90
11055;DHT22;5580;50.106;8.702;2023-12-04T13:40:05;-0.80;99.90
11055;DHT22;5580;50.106;8.702;2023-12-04T13:42:34;-0.80;99.90
11055;DHT22;5580;50.106;8.702;2023-12-04T13:45:18;-0.70;99.90
11055;DHT22;5580;50.106;8.702;2023-12-04T13:47:47;-0.70;99.90
11055;DHT22;5580;50.106;8.702;2023-12-04T13:50:13;-0.70;99.90
11055;DHT22;5580;50.106;8.702;2023-12-04T13:52:39;-0.60;99.90
11055;DHT22;5580;50.106;8.702;2023-12-04T13:55:05;-0.60;99.90
11055;DHT22;5580;50.106;8.702;2023-12-04T13:57:45;-0.60;99.90
11055;DHT22;5580;50.106;8.702;2023-12-04T14:00:35;-0.60;99.90
11055;DHT22;5580;50.106;8.702;2023-12-04T14:03:01;-0.60;99.90
11055;DHT22;5580;50.106;8.702;2023-12-04T14:05:30;-0.60;99.90
11055;DHT22;5580;50.106;8.702;2023-12-04T14:07:56;-0.60;99.90
11055;DHT22;5580;50.106;8.702;2023-12-04T14:10:24;-0.60;99.90
11055;DHT22;5580;50.106;8.702;2023-12-04T14:12:51;-0.60;99.90
11055;DHT22;5580;50.106;8.702;2023-12-04T14:15:17;-0.60;99.90
11055;DHT22;5580;50.106;8.702;2023-12-04T14:17:43;-0.50;99.90
11055;DHT22;5580;50.106;8.702;2023-12-04T14:20:09;-0.50;99.90
11055;DHT22;5580;50.106;8.702;2023-12-04T14:22:42;-0.50;99.90
11055;DHT22;5580;50.106;8.702;2023-12-04T14:25:08;-0.40;99.90
11055;DHT22;5580;50.106;8.702;2023-12-04T14:27:34;-0.40;99.90
11055;DHT22;5580;50.106;8.702;2023-12-04T14:30:01;-0.40;99.90
11055;DHT22;5580;50.106;8.702;2023-12-04T14:32:29;-0.40;99.90
11055;DHT22;5580;50.106;8.702;2023-12-04T14:34:54;-0.40;99.90
11055;DHT22;5580;50.106;8.702;2023-12-04T14:37:20;-0.40;99.90
11055;DHT22;5580;50.106;8.702;2023-12-04T14:39:45;-0.40;99.90
11055;DHT22;5580;50.106;8.702;2023-12-04T14:42:11;-0.30;99.90
11055;DHT22;5580;50.106;8.702;2023-12-04T14:44:37;-0.40;99.90
11055;DHT22;5580;50.106;8.702;2023-12-04T14:47:03;-0.40;99.90
11055;DHT22;5580;50.106;8.702;2023-12-04T14:49:30;-0.40;99.90
11055;DHT22;5580;50.106;8.702;2023-12-04T14:51:57;-0.40;99.90
11055;DHT22;5580;50.106;8.702;2023-12-04T14:54:22;-0.40;99.90
11055;DHT22;5580;50.106;8.702;2023-12-04T14:57:03;-0.40;99.90
11055;DHT22;5580;50.106;8.702;2023-12-04T14:59:44;-0.40;99.90
11055;DHT22;5580;50.106;8.702;2023-12-04T15:02:29;-0.40;99.90
11055;DHT22;5580;50.106;8.702;2023-12-04T15:05:13;-0.40;99.90
11055;DHT22;5580;50.106;8.702;2023-12-04T15:07:59;-0.40;99.90
11055;DHT22;5580;50.106;8.702;2023-12-04T15:10:33;-0.40;99.90
11055;DHT22;5580;50.106;8.702;2023-12-04T15:13:18;-0.30;99.90
11055;DHT22;5580;50.106;8.702;2023-12-04T15:16:02;-0.30;99.90
11055;DHT22;5580;50.106;8.702;2023-12-04T15:18:27;-0.30;99.90
11055;DHT22;5580;50.106;8.702;2023-12-04T15:21:08;-0.30;99.90
11055;DHT22;5580;50.106;8.702;2023-12-04T15:23:34;-0.30;99.90
11055;DHT22;5580;50.106;8.702;2023-12-04T15:26:00;-0.30;99.90
11055;DHT22;5580;50.106;8.702;2023-12-04T15:28:27;-0.30;99.90
11055;DHT22;5580;50.106;8.702;2023-12-04T15:30:53;-0.30;99.90
11055;DHT22;5580;50.106;8.702;2023-12-04T15:33:18;-0.30;99.90
11055;DHT22;5580;50.106;8.702;2023-12-04T15:35:45;-0.30;99.90
11055;DHT22;5580;50.106;8.702;2023-12-04T15:38:11;-0.30;99.90
11055;DHT22;5580;50.106;8.702;2023-12-04T15:40:37;-0.30;99.90
11055;DHT22;5580;50.106;8.702;2023-12-04T15:43:02;-0.30;99.90
11055;DHT22;5580;50.106;8.702;2023-12-04T15:45:28;-0.30;99.90
11055;DHT22;5580;50.106;8.702;2023-12-04T15:47:54;-0.20;99.90